createdAt,value
2019-03-26T00:01:06.328Z,101803.25
2019-03-26T00:03:35.043Z,101797.10
2019-03-26T00:06:03.745Z,101803.41
2019-03-26T00:08:32.414Z,101801.78
2019-03-26T00:11:01.103Z,101797.19
2019-03-26T00:13:29.785Z,101791.92
2019-03-26T00:15:58.368Z,101793.12
2019-03-26T00:18:27.054Z,101794.17
2019-03-26T00:20:55.636Z,101797.61
2019-03-26T00:23:24.286Z,101800.64
2019-03-26T00:25:52.912Z,101805.16
2019-03-26T00:28:21.592Z,101795.26
2019-03-26T00:30:50.175Z,101797.95
2019-03-26T00:33:18.829Z,101794.13
2019-03-26T00:35:47.445Z,101794.20
2019-03-26T00:38:16.130Z,101786.72
2019-03-26T00:40:44.712Z,101791.02
2019-03-26T00:43:13.399Z,101790.67
2019-03-26T00:45:42.086Z,101789.43
2019-03-26T00:48:10.775Z,101789.71
2019-03-26T00:50:39.463Z,101796.52
2019-03-26T00:53:08.245Z,101795.27
2019-03-26T00:55:36.876Z,101794.12
2019-03-26T00:58:05.493Z,101799.64
2019-03-26T01:00:41.663Z,101800.83
2019-03-26T01:03:10.553Z,101801.70
2019-03-26T01:05:39.561Z,101800.86
2019-03-26T01:08:08.347Z,101796.13
2019-03-26T01:10:37.032Z,101801.70
2019-03-26T01:13:06.090Z,101792.72
2019-03-26T01:15:34.813Z,101790.38
2019-03-26T01:18:03.499Z,101795.22
2019-03-26T01:20:32.125Z,101793.49
2019-03-26T01:23:00.767Z,101796.80
2019-03-26T01:25:29.354Z,101795.87
2019-03-26T01:27:58.268Z,101796.20
2019-03-26T01:30:26.824Z,101799.97
2019-03-26T01:32:55.613Z,101784.47
2019-03-26T01:35:24.301Z,101792.47
2019-03-26T01:37:53.086Z,101790.41
2019-03-26T01:40:21.773Z,101783.34
2019-03-26T01:42:50.449Z,101783.16
2019-03-26T01:45:19.045Z,101782.13
2019-03-26T01:47:47.831Z,101785.91
2019-03-26T01:50:16.557Z,101785.04
2019-03-26T01:52:45.307Z,101787.27
2019-03-26T01:55:13.888Z,101785.78
2019-03-26T01:57:42.569Z,101782.37
2019-03-26T02:00:11.568Z,101789.34
2019-03-26T02:02:40.357Z,101790.30
2019-03-26T02:05:09.042Z,101784.12
2019-03-26T02:07:39.017Z,101788.07
2019-03-26T02:10:07.796Z,101788.11
2019-03-26T02:12:36.486Z,101789.91
2019-03-26T02:15:07.728Z,101794.32
2019-03-26T02:17:36.464Z,101785.97
2019-03-26T02:20:06.462Z,101785.49
2019-03-26T02:22:35.029Z,101782.14
2019-03-26T02:25:03.765Z,101781.66
2019-03-26T02:27:32.437Z,101779.22
2019-03-26T02:30:01.231Z,101783.47
2019-03-26T02:32:30.010Z,101785.48
2019-03-26T02:34:58.681Z,101791.33
2019-03-26T02:37:27.281Z,101781.54
2019-03-26T02:39:56.070Z,101791.09
2019-03-26T02:42:24.754Z,101798.69
2019-03-26T02:44:54.572Z,101791.67
2019-03-26T02:47:23.492Z,101798.17
2019-03-26T02:49:52.143Z,101802.55
2019-03-26T02:52:20.835Z,101797.73
2019-03-26T02:54:49.618Z,101800.88
2019-03-26T02:57:18.199Z,101738.42
2019-03-26T02:59:46.887Z,101805.63
2019-03-26T03:02:15.575Z,101792.61
2019-03-26T03:04:44.228Z,101790.44
2019-03-26T03:07:12.840Z,101791.47
2019-03-26T03:09:41.524Z,101788.25
2019-03-26T03:12:10.114Z,101787.09
2019-03-26T03:14:38.767Z,101782.19
2019-03-26T03:17:07.495Z,101772.95
2019-03-26T03:19:36.075Z,101776.31
2019-03-26T03:22:04.853Z,101773.16
2019-03-26T03:24:33.592Z,101774.44
2019-03-26T03:27:02.739Z,101767.91
2019-03-26T03:29:31.521Z,101772.06
2019-03-26T03:32:00.065Z,101768.89
2019-03-26T03:34:28.808Z,101775.73
2019-03-26T03:36:57.607Z,101765.75
2019-03-26T03:39:26.299Z,101767.36
2019-03-26T03:41:54.851Z,101761.93
2019-03-26T03:44:23.638Z,101766.03
2019-03-26T03:46:52.834Z,101764.89
2019-03-26T03:49:25.218Z,101760.66
2019-03-26T03:51:54.711Z,101760.70
2019-03-26T03:54:23.707Z,101758.22
2019-03-26T03:56:54.327Z,101754.30
2019-03-26T03:59:23.843Z,101756.48
2019-03-26T04:01:52.629Z,101743.28
2019-03-26T04:04:21.316Z,101751.53
2019-03-26T04:06:49.989Z,101747.02
2019-03-26T04:09:18.585Z,101753.09
2019-03-26T04:11:47.288Z,101760.28
2019-03-26T04:14:15.832Z,101760.09
2019-03-26T04:16:44.545Z,101756.31
2019-03-26T04:19:13.224Z,101754.03
2019-03-26T04:21:42.223Z,101751.89
2019-03-26T04:24:10.766Z,101749.47
2019-03-26T04:26:39.488Z,101750.41
2019-03-26T04:29:08.058Z,101744.00
2019-03-26T04:31:36.662Z,101745.61
2019-03-26T04:34:05.442Z,101746.34
2019-03-26T04:36:34.231Z,101745.52
2019-03-26T04:39:03.939Z,101746.69
2019-03-26T04:41:32.625Z,101745.96
2019-03-26T04:44:01.728Z,101756.43
2019-03-26T04:46:30.405Z,101752.13
2019-03-26T04:48:58.945Z,101758.34
2019-03-26T04:51:27.559Z,101754.77
2019-03-26T04:53:56.158Z,101764.58
2019-03-26T04:56:24.843Z,101766.98
2019-03-26T04:58:53.424Z,101763.05
2019-03-26T05:01:22.104Z,101766.21
2019-03-26T05:03:50.693Z,101767.00
2019-03-26T05:06:19.390Z,101778.23
2019-03-26T05:08:47.926Z,101779.06
2019-03-26T05:11:16.547Z,101782.41
2019-03-26T05:13:45.230Z,101786.09
2019-03-26T05:16:14.010Z,101790.61
2019-03-26T05:18:42.604Z,101785.47
2019-03-26T05:21:11.320Z,101789.70
2019-03-26T05:23:39.975Z,101790.70
2019-03-26T05:26:09.175Z,101795.65
2019-03-26T05:28:37.860Z,101796.10
2019-03-26T05:31:06.647Z,101803.82
2019-03-26T05:33:35.843Z,101797.56
2019-03-26T05:36:04.632Z,101810.39
2019-03-26T05:38:33.305Z,101796.83
2019-03-26T05:41:02.109Z,101817.95
2019-03-26T05:43:30.664Z,101821.71
2019-03-26T05:45:59.580Z,101821.20
2019-03-26T05:48:28.131Z,101816.09
2019-03-26T05:50:56.861Z,101814.15
2019-03-26T05:53:25.534Z,101820.37
2019-03-26T05:55:54.425Z,101820.72
2019-03-26T05:58:23.025Z,101835.95
2019-03-26T06:00:51.692Z,101836.95
2019-03-26T06:03:20.278Z,101826.14
2019-03-26T06:05:48.957Z,101838.97
2019-03-26T06:08:17.621Z,101833.53
2019-03-26T06:10:46.347Z,101839.50
2019-03-26T06:13:15.122Z,101836.28
2019-03-26T06:15:43.779Z,101826.10
2019-03-26T06:18:12.492Z,101830.19
2019-03-26T06:20:41.284Z,101835.52
2019-03-26T06:23:09.834Z,101837.70
2019-03-26T06:25:38.554Z,101830.77
2019-03-26T06:28:07.133Z,101823.00
2019-03-26T06:30:35.921Z,101828.99
2019-03-26T06:33:04.709Z,101818.74
2019-03-26T06:35:33.291Z,101815.95
2019-03-26T06:38:01.978Z,101818.64
2019-03-26T06:40:30.561Z,101819.27
2019-03-26T06:42:59.554Z,101816.70
2019-03-26T06:45:28.137Z,101825.29
2019-03-26T06:47:56.925Z,101814.22
2019-03-26T06:50:25.474Z,101821.10
2019-03-26T06:52:54.144Z,101817.06
2019-03-26T06:55:23.290Z,101817.28
2019-03-26T06:57:51.977Z,101815.75
2019-03-26T07:00:33.854Z,101817.53
2019-03-26T07:03:03.975Z,101811.27
2019-03-26T07:05:32.687Z,101823.68
2019-03-26T07:08:01.361Z,101820.34
2019-03-26T07:10:30.559Z,101824.82
2019-03-26T07:12:59.961Z,101839.39
2019-03-26T07:15:28.754Z,101830.79
2019-03-26T07:17:57.461Z,101825.65
2019-03-26T07:20:26.122Z,101836.02
2019-03-26T07:22:54.746Z,101826.84
2019-03-26T07:25:23.391Z,101818.03
2019-03-26T07:27:52.077Z,101818.73
2019-03-26T07:30:42.383Z,101830.62
2019-03-26T07:33:11.265Z,101829.78
2019-03-26T07:35:39.943Z,101819.86
2019-03-26T07:38:08.836Z,101817.63
2019-03-26T07:40:37.624Z,101819.42
2019-03-26T07:43:06.524Z,101822.42
2019-03-26T07:45:35.413Z,101814.19
2019-03-26T07:48:05.729Z,101815.89
2019-03-26T07:50:34.321Z,101817.59
2019-03-26T07:53:02.857Z,101812.48
2019-03-26T07:55:31.692Z,101812.77
2019-03-26T07:58:00.377Z,101802.59
2019-03-26T08:00:36.537Z,101801.74
2019-03-26T08:03:06.042Z,101790.63
2019-03-26T08:05:34.626Z,101791.41
2019-03-26T08:08:03.624Z,101792.47
2019-03-26T08:10:33.509Z,101782.34
2019-03-26T08:13:02.120Z,101779.19
2019-03-26T08:15:31.009Z,101777.70
2019-03-26T08:17:59.693Z,101772.27
2019-03-26T08:20:28.368Z,101771.77
2019-03-26T08:22:57.168Z,101761.23
2019-03-26T08:25:25.753Z,101771.29
2019-03-26T08:27:55.972Z,101756.16
2019-03-26T08:30:24.761Z,101752.89
2019-03-26T08:32:53.446Z,101769.28
2019-03-26T08:35:22.193Z,101766.19
2019-03-26T08:37:50.917Z,101767.80
2019-03-26T08:40:19.604Z,101769.36
2019-03-26T08:42:48.259Z,101769.16
2019-03-26T08:45:16.974Z,101765.11
2019-03-26T08:47:45.658Z,101767.76
2019-03-26T08:50:14.656Z,101767.13
2019-03-26T08:52:43.307Z,101771.85
2019-03-26T08:55:12.842Z,101774.62
2019-03-26T08:57:41.531Z,101778.83
2019-03-26T09:00:12.042Z,101785.05
2019-03-26T09:02:40.611Z,101779.09
2019-03-26T09:05:09.634Z,101785.44
2019-03-26T09:07:38.318Z,101771.35
2019-03-26T09:10:09.563Z,101776.58
2019-03-26T09:12:39.680Z,101777.75
2019-03-26T09:15:14.038Z,101773.95
2019-03-26T09:17:44.192Z,101777.31
2019-03-26T09:20:12.191Z,101782.73
2019-03-26T09:22:40.978Z,101782.09
2019-03-26T09:25:09.869Z,101774.84
2019-03-26T09:27:38.514Z,101778.70
2019-03-26T09:30:09.845Z,101776.14
2019-03-26T09:32:39.431Z,101772.48
2019-03-26T09:35:09.832Z,101765.21
2019-03-26T09:37:38.416Z,101768.01
2019-03-26T09:40:10.383Z,101756.88
2019-03-26T09:42:39.169Z,101753.49
2019-03-26T09:45:09.578Z,101748.61
2019-03-26T09:47:38.676Z,101748.27
2019-03-26T09:50:09.155Z,101750.89
2019-03-26T09:52:37.826Z,101761.21
2019-03-26T09:55:09.817Z,101766.27
2019-03-26T09:57:38.450Z,101766.11
2019-03-26T10:00:11.742Z,101759.37
2019-03-26T10:02:42.994Z,101757.11
2019-03-26T10:05:11.162Z,101759.28
2019-03-26T10:07:39.951Z,101766.39
2019-03-26T10:10:09.738Z,101753.58
2019-03-26T10:12:38.331Z,101764.22
2019-03-26T10:15:07.339Z,101748.73
2019-03-26T10:17:36.630Z,101760.38
2019-03-26T10:20:08.193Z,101747.12
2019-03-26T10:22:37.593Z,101753.47
2019-03-26T10:25:10.716Z,101754.95
2019-03-26T10:27:37.731Z,101754.56
2019-03-26T10:30:09.567Z,101753.09
2019-03-26T10:32:38.583Z,101746.81
2019-03-26T10:35:07.782Z,101736.52
2019-03-26T10:37:36.474Z,101734.19
2019-03-26T10:40:09.971Z,101734.08
2019-03-26T10:42:38.648Z,101740.12
2019-03-26T10:45:08.050Z,101747.72
2019-03-26T10:47:36.710Z,101741.45
2019-03-26T10:50:07.069Z,101751.30
2019-03-26T10:52:38.037Z,101739.07
2019-03-26T10:55:07.301Z,101735.59
2019-03-26T10:57:36.229Z,101731.97
2019-03-26T11:00:08.155Z,101723.45
2019-03-26T11:02:36.845Z,101713.73
2019-03-26T11:05:06.972Z,101732.42
2019-03-26T11:07:35.652Z,101729.66
2019-03-26T11:10:08.628Z,101718.83
2019-03-26T11:12:37.319Z,101715.42
2019-03-26T11:15:07.442Z,101720.27
2019-03-26T11:17:36.117Z,101712.52
2019-03-26T11:20:05.626Z,101713.16
2019-03-26T11:22:34.827Z,101707.41
2019-03-26T11:25:05.048Z,101711.80
2019-03-26T11:27:33.835Z,101713.80
2019-03-26T11:30:02.520Z,101732.62
2019-03-26T11:32:31.274Z,101721.63
2019-03-26T11:35:00.157Z,101725.70
2019-03-26T11:37:28.950Z,101722.00
2019-03-26T11:39:57.570Z,101722.95
2019-03-26T11:42:26.254Z,101717.36
2019-03-26T11:44:54.984Z,101724.70
2019-03-26T11:47:23.835Z,101724.49
2019-03-26T11:49:52.422Z,101724.49
2019-03-26T11:52:21.095Z,101718.88
2019-03-26T11:54:50.724Z,101726.70
2019-03-26T11:57:19.395Z,101721.34
2019-03-26T11:59:47.978Z,101718.95
2019-03-26T12:02:16.699Z,101701.02
2019-03-26T12:04:45.360Z,101698.41
2019-03-26T12:07:14.036Z,101691.51
2019-03-26T12:09:46.484Z,101698.91
2019-03-26T12:12:12.944Z,101695.82
2019-03-26T12:14:41.492Z,101694.06
2019-03-26T12:17:10.210Z,101690.63
2019-03-26T12:19:38.888Z,101696.80
2019-03-26T12:22:07.583Z,101698.98
2019-03-26T12:24:36.268Z,101680.70
2019-03-26T12:27:04.852Z,101686.91
2019-03-26T12:29:33.601Z,101712.08
2019-03-26T12:32:02.225Z,101731.50
2019-03-26T12:34:31.012Z,101711.45
2019-03-26T12:36:59.596Z,101716.16
2019-03-26T12:39:28.271Z,101712.06
2019-03-26T12:41:56.863Z,101723.23
2019-03-26T12:44:25.508Z,101726.51
2019-03-26T12:46:54.133Z,101716.84
2019-03-26T12:49:22.829Z,101719.00
2019-03-26T12:51:51.403Z,101710.05
2019-03-26T12:54:20.191Z,101708.56
2019-03-26T12:56:48.840Z,101698.67
2019-03-26T12:59:17.562Z,101710.73
2019-03-26T13:01:46.144Z,101713.45
2019-03-26T13:04:16.868Z,101719.18
2019-03-26T13:06:45.163Z,101727.77
2019-03-26T13:09:13.944Z,101725.76
2019-03-26T13:11:42.526Z,101725.06
2019-03-26T13:14:11.468Z,101723.86
2019-03-26T13:16:40.105Z,101734.92
2019-03-26T13:19:08.790Z,101730.39
2019-03-26T13:21:37.734Z,101728.97
2019-03-26T13:24:06.677Z,101727.42
2019-03-26T13:26:35.215Z,101729.98
2019-03-26T13:29:03.940Z,101713.90
2019-03-26T13:31:32.627Z,101720.14
2019-03-26T13:34:01.218Z,101726.42
2019-03-26T13:36:29.884Z,101729.50
2019-03-26T13:38:58.486Z,101729.95
2019-03-26T13:41:27.168Z,101735.49
2019-03-26T13:43:55.851Z,101735.83
2019-03-26T13:46:24.503Z,101741.61
2019-03-26T13:48:53.330Z,101737.21
2019-03-26T13:51:22.010Z,101751.99
2019-03-26T13:53:51.206Z,101757.30
2019-03-26T13:56:19.788Z,101754.88
2019-03-26T13:58:48.476Z,101742.50
2019-03-26T14:01:17.165Z,101727.17
2019-03-26T14:03:45.948Z,101725.44
2019-03-26T14:06:14.625Z,101727.77
2019-03-26T14:08:43.323Z,101720.03
2019-03-26T14:11:12.007Z,101722.45
2019-03-26T14:13:40.692Z,101727.31
2019-03-26T14:16:09.277Z,101727.67
2019-03-26T14:18:37.885Z,101717.89
2019-03-26T14:21:06.648Z,101723.44
2019-03-26T14:23:35.332Z,101721.78
2019-03-26T14:26:04.019Z,101738.06
2019-03-26T14:28:32.705Z,101742.08
2019-03-26T14:31:01.523Z,101747.13
2019-03-26T14:33:30.169Z,101746.83
2019-03-26T14:35:58.761Z,101734.05
2019-03-26T14:38:27.449Z,101736.67
2019-03-26T14:40:56.237Z,101741.39
2019-03-26T14:43:24.907Z,101744.65
2019-03-26T14:45:53.506Z,101741.39
2019-03-26T14:48:22.190Z,101737.59
2019-03-26T14:50:50.740Z,101737.98
2019-03-26T14:53:19.359Z,101731.67
2019-03-26T14:55:48.452Z,101734.94
2019-03-26T14:58:17.138Z,101730.91
2019-03-26T15:00:45.825Z,101731.85
2019-03-26T15:03:16.658Z,101723.79
2019-03-26T15:05:45.228Z,101730.95
2019-03-26T15:08:14.031Z,101738.94
2019-03-26T15:10:42.618Z,101743.47
2019-03-26T15:13:11.263Z,101736.95
2019-03-26T15:15:39.987Z,101751.83
2019-03-26T15:18:08.876Z,101750.26
2019-03-26T15:20:37.562Z,101744.80
2019-03-26T15:23:06.342Z,101740.04
2019-03-26T15:25:35.018Z,101738.99
2019-03-26T15:28:03.723Z,101740.02
2019-03-26T15:30:32.472Z,101743.09
2019-03-26T15:33:01.198Z,101743.56
2019-03-26T15:35:29.776Z,101749.47
2019-03-26T15:37:58.772Z,101742.09
2019-03-26T15:40:27.355Z,101745.08
2019-03-26T15:42:56.143Z,101745.16
2019-03-26T15:45:24.934Z,101740.18
2019-03-26T15:47:53.719Z,101739.47
2019-03-26T15:50:42.509Z,101739.45
2019-03-26T15:53:11.364Z,101738.81
2019-03-26T15:55:40.979Z,101738.59
2019-03-26T15:58:09.764Z,101738.06
2019-03-26T16:00:38.447Z,101746.19
2019-03-26T16:03:07.135Z,101749.36
2019-03-26T16:05:35.818Z,101750.84
2019-03-26T16:08:04.505Z,101759.46
2019-03-26T16:10:33.291Z,101750.88
2019-03-26T16:13:04.600Z,101758.91
2019-03-26T16:15:43.473Z,101761.91
2019-03-26T16:18:03.855Z,101758.27
2019-03-26T16:20:32.746Z,101768.01
2019-03-26T16:23:01.846Z,101767.23
2019-03-26T16:25:30.525Z,101773.89
2019-03-26T16:27:59.272Z,101773.16
2019-03-26T16:30:30.487Z,101776.73
2019-03-26T16:32:58.424Z,101778.18
2019-03-26T16:35:27.112Z,101778.98
2019-03-26T16:37:55.904Z,101777.36
2019-03-26T16:40:24.686Z,101788.19
2019-03-26T16:42:53.463Z,101781.77
2019-03-26T16:45:22.180Z,101791.38
2019-03-26T16:47:50.951Z,101784.34
2019-03-26T16:50:19.739Z,101792.83
2019-03-26T16:52:48.529Z,101788.52
2019-03-26T16:55:17.188Z,101793.52
2019-03-26T16:57:47.024Z,101792.72
2019-03-26T17:00:17.961Z,101798.88
2019-03-26T17:02:46.658Z,101795.23
2019-03-26T17:05:18.611Z,101799.36
2019-03-26T17:07:47.401Z,101793.81
2019-03-26T17:10:16.085Z,101796.70
2019-03-26T17:12:44.771Z,101787.18
2019-03-26T17:15:13.661Z,101793.03
2019-03-26T17:17:42.347Z,101795.91
2019-03-26T17:20:11.564Z,101800.00
2019-03-26T17:22:40.213Z,101799.23
2019-03-26T17:25:09.119Z,101805.91
2019-03-26T17:27:38.426Z,101807.66
2019-03-26T17:30:07.618Z,101805.29
2019-03-26T17:32:36.415Z,101813.89
2019-03-26T17:35:06.758Z,101806.63
2019-03-26T17:37:35.414Z,101811.19
2019-03-26T17:40:05.127Z,101811.10
2019-03-26T17:42:33.916Z,101815.95
2019-03-26T17:45:02.610Z,101824.77
2019-03-26T17:47:32.002Z,101829.05
2019-03-26T17:50:00.588Z,101830.55
2019-03-26T17:52:29.246Z,101836.74
2019-03-26T17:54:57.963Z,101839.50
2019-03-26T17:57:26.564Z,101837.58
2019-03-26T17:59:55.225Z,101838.05
2019-03-26T18:02:23.876Z,101843.77
2019-03-26T18:04:52.596Z,101841.90
2019-03-26T18:07:21.280Z,101850.08
2019-03-26T18:09:49.867Z,101857.23
2019-03-26T18:12:30.162Z,101868.16
2019-03-26T18:14:48.876Z,101866.27
2019-03-26T18:17:17.563Z,101871.17
2019-03-26T18:19:46.247Z,101876.52
2019-03-26T18:22:14.904Z,101876.39
2019-03-26T18:24:43.516Z,101884.04
2019-03-26T18:27:12.265Z,101880.09
2019-03-26T18:29:40.895Z,101884.98
2019-03-26T18:32:09.681Z,101881.42
2019-03-26T18:34:38.471Z,101887.04
2019-03-26T18:37:07.365Z,101888.91
2019-03-26T18:39:36.255Z,101894.76
2019-03-26T18:42:05.248Z,101901.61
2019-03-26T18:44:34.035Z,101901.28
2019-03-26T18:47:02.931Z,101912.16
2019-03-26T18:49:31.819Z,101909.34
2019-03-26T18:52:00.713Z,101909.98
2019-03-26T18:54:29.602Z,101908.86
2019-03-26T18:56:58.287Z,101913.88
2019-03-26T18:59:27.068Z,101920.45
2019-03-26T19:01:55.876Z,101929.40
2019-03-26T19:04:24.854Z,101939.48
2019-03-26T19:06:53.847Z,101941.14
2019-03-26T19:09:22.739Z,101936.94
2019-03-26T19:11:51.630Z,101935.45
2019-03-26T19:14:20.515Z,101932.92
2019-03-26T19:16:49.302Z,101937.30
2019-03-26T19:19:18.202Z,101943.58
2019-03-26T19:21:47.194Z,101952.76
2019-03-26T19:24:16.336Z,101947.27
2019-03-26T19:26:57.454Z,101956.62
2019-03-26T19:29:26.348Z,101961.84
2019-03-26T19:32:02.744Z,101964.08
2019-03-26T19:34:31.716Z,101974.45
2019-03-26T19:37:00.607Z,101967.62
2019-03-26T19:39:29.394Z,101972.20
2019-03-26T19:42:00.375Z,101970.36
2019-03-26T19:44:29.325Z,101983.66
2019-03-26T19:46:58.215Z,101994.44
2019-03-26T19:49:27.112Z,101993.09
2019-03-26T19:51:56.009Z,101985.55
2019-03-26T19:54:24.901Z,101986.61
2019-03-26T19:56:53.790Z,101986.03
2019-03-26T19:59:22.785Z,101993.25
2019-03-26T20:01:51.776Z,101993.12
2019-03-26T20:04:20.774Z,101988.33
2019-03-26T20:06:49.759Z,101996.00
2019-03-26T20:09:18.753Z,102004.55
2019-03-26T20:11:47.647Z,101999.77
2019-03-26T20:14:16.633Z,102007.56
2019-03-26T20:16:45.635Z,102006.70
2019-03-26T20:19:14.520Z,102016.97
2019-03-26T20:21:43.412Z,102012.63
2019-03-26T20:24:12.407Z,102023.22
2019-03-26T20:26:41.299Z,102031.05
2019-03-26T20:29:10.288Z,102031.52
2019-03-26T20:31:39.293Z,102027.83
2019-03-26T20:34:08.170Z,102029.63
2019-03-26T20:36:37.057Z,102035.97
2019-03-26T20:39:07.910Z,102037.33
2019-03-26T20:41:36.774Z,102043.48
2019-03-26T20:44:05.666Z,102037.02
2019-03-26T20:46:34.353Z,102041.71
2019-03-26T20:49:03.038Z,102046.69
2019-03-26T20:51:33.364Z,102047.56
2019-03-26T20:54:02.048Z,102050.52
2019-03-26T20:56:32.373Z,102054.53
2019-03-26T20:59:01.469Z,102050.47
2019-03-26T21:01:30.050Z,102054.53
2019-03-26T21:03:58.736Z,102060.50
2019-03-26T21:06:27.428Z,102059.83
2019-03-26T21:08:55.983Z,102067.77
2019-03-26T21:11:24.587Z,102062.69
2019-03-26T21:13:53.378Z,102064.21
2019-03-26T21:16:21.958Z,102069.56
2019-03-26T21:18:50.646Z,102072.00
2019-03-26T21:21:19.221Z,102072.53
2019-03-26T21:23:47.916Z,102070.34
2019-03-26T21:26:17.012Z,102083.05
2019-03-26T21:28:52.971Z,102085.00
2019-03-26T21:31:22.881Z,102086.36
2019-03-26T21:33:51.567Z,102088.55
2019-03-26T21:36:20.320Z,102089.81
2019-03-26T21:38:48.937Z,102094.52
2019-03-26T21:41:17.624Z,102088.77
2019-03-26T21:43:46.207Z,102089.71
2019-03-26T21:46:14.951Z,102096.15
2019-03-26T21:48:43.578Z,102100.52
2019-03-26T21:51:12.571Z,102104.67
2019-03-26T21:53:46.813Z,102109.16
2019-03-26T21:56:17.127Z,102106.82
2019-03-26T21:58:45.799Z,102104.63
2019-03-26T22:01:19.794Z,102104.47
2019-03-26T22:03:48.496Z,102109.69
2019-03-26T22:06:17.291Z,102113.32
2019-03-26T22:08:45.969Z,102110.09
2019-03-26T22:11:14.550Z,102118.19
2019-03-26T22:13:43.236Z,102113.66
2019-03-26T22:16:13.561Z,102122.34
2019-03-26T22:18:49.236Z,102124.03
2019-03-26T22:21:18.819Z,102123.41
2019-03-26T22:23:47.503Z,102134.62
2019-03-26T22:26:18.067Z,102138.05
2019-03-26T22:28:46.823Z,102141.58
2019-03-26T22:31:15.485Z,102142.73
2019-03-26T22:33:44.196Z,102137.64
2019-03-26T22:36:12.872Z,102140.53
2019-03-26T22:38:41.452Z,102140.22
2019-03-26T22:41:10.146Z,102146.03
2019-03-26T22:43:38.712Z,102149.28
2019-03-26T22:46:07.523Z,102143.80
2019-03-26T22:48:36.311Z,102142.59
2019-03-26T22:51:05.093Z,102144.64
2019-03-26T22:53:33.882Z,102148.50
2019-03-26T22:56:02.466Z,102146.30
2019-03-26T22:58:31.262Z,102147.66
2019-03-26T23:00:59.945Z,102152.91
2019-03-26T23:03:28.622Z,102147.48
2019-03-26T23:05:57.312Z,102155.64
2019-03-26T23:08:26.115Z,102152.37
2019-03-26T23:10:54.753Z,102152.75
2019-03-26T23:13:23.573Z,102143.48
2019-03-26T23:15:52.257Z,102149.97
2019-03-26T23:18:20.944Z,102142.39
2019-03-26T23:20:49.874Z,102141.53
2019-03-26T23:23:18.724Z,102143.29
2019-03-26T23:25:47.310Z,102151.70
2019-03-26T23:28:16.099Z,102147.42
2019-03-26T23:30:44.781Z,102155.23
2019-03-26T23:33:13.468Z,102149.48
2019-03-26T23:35:42.053Z,102157.47
2019-03-26T23:38:10.728Z,102155.66
2019-03-26T23:40:39.387Z,102154.96
2019-03-26T23:43:08.210Z,102157.71
2019-03-26T23:45:36.895Z,102162.90
2019-03-26T23:48:05.687Z,102160.52
2019-03-26T23:50:34.471Z,102162.05
2019-03-26T23:53:03.267Z,102172.97
2019-03-26T23:55:31.946Z,102173.16
2019-03-26T23:58:00.733Z,102168.45
